KAXN/AXN METAR and TAF weather

Enter ICAO airport designator
Station Type Date Time Source
KAXN METAR 2019/07/20 04:53 UTC NOAA

KAXN 200453Z AUTO 03006KT 10SM CLR 23/20 A2982 RMK AO2 SLP091 T02330200


Station Type Date Time Source
KAXN Decoded METAR 2019/07/20 04:53 UTC NOAA

CHANDLER FIELD, MN, United States (KAXN) 45-52N 095-24W 433M
Jul 20, 2019 - 12:53 AM EDT / 2019.07.20 0453 UTC
Wind: from the NNE (030 degrees) at 7 MPH (6 KT):0
Visibility: 10 mile(s):0
Sky conditions: clear
Temperature: 73.9 F (23.3 C)
Dew Point: 68.0 F (20.0 C)
Relative Humidity: 81%
Pressure (altimeter): 29.82 in. Hg (1009 hPa)
ob: KAXN 200453Z AUTO 03006KT 10SM CLR 23/20 A2982 RMK AO2 SLP091 T02330200
cycle: 5

Station Type Date Time Source
KAXN TAF 2019/07/20 06:22 UTC NOAA

TAF KAXN 200520Z 2006/2106 01007KT P6SM SCT120
FM201100 08008KT 4SM -SHRA OVC020
FM201600 12007KT P6SM OVC030
FM201800 23007KT P6SM SCT030
FM202100 31007KT P6SM SCT030
FM210000 32006KT P6SM SKC

Example: see airport list